Time Latitude Longitude Accuracy (66% radius in meters) Altitude (meters) Speed (km/hour) Bearing (degrees) Battery (%) GPS flag
11:39:04 57.150642 39.348275 5.5 98.099998474121 0 0 17 1 delete
11:38:49 57.150621 39.348213 10 106.90000152588 0.22999998927116 105.69396972656 17 1 delete
11:38:43 57.150522 39.348131 12.5 111.19999694824 0.34999999403954 157.02758789062 17 1 delete
11:28:34 57.150697 39.348499 6.5 105.59999847412 0 0 17 1 delete
11:28:13 57.150730 39.348599 7.5 97 0.56999999284744 152.65502929688 17 1 delete
11:18:03 57.147972 39.346277 1.5 106.59999847412 1.6699999570847 15.639038085938 17 1 delete
11:17:58 57.147910 39.346253 1.5 106.40000152588 1.4399999380112 5.9381103515625 17 1 delete
11:17:48 57.147786 39.346276 2 105.19999694824 1.3999999761581 347.50305175781 17 1 delete
11:17:37 57.147694 39.346350 8 105.40000152588 1.4699999094009 358.38500976562 17 1 delete
11:07:33 57.144409 39.340301 1.5 108 1.2400000095367 244.05029296875 17 1 delete
11:07:28 57.144432 39.340376 1.5 108.80000305176 1.2099999189377 251.62536621094 17 1 delete
11:07:23 57.144433 39.340493 2 108.90000152588 1.0900000333786 274.11987304688 17 1 delete
11:07:13 57.144438 39.340711 2.5 110.5 1.5499999523163 274.41101074219 17 1 delete
11:07:07 57.144441 39.340937 8.5 108.59999847412 1.3799999952316 284.47998046875 17 1 delete
10:56:58 57.140058 39.344510 1.5 104.5 1.3600000143051 348.78295898438 17 1 delete
10:56:53 57.139996 39.344533 2 104.80000305176 1.3099999427795 348.64013671875 17 1 delete
10:56:37 57.139865 39.344649 8 107.30000305176 1.3099999427795 338.53271484375 17 1 delete
10:46:28 57.137076 39.337314 2 113.09999847412 0.58999997377396 50.993041992188 19 1 delete
10:46:18 57.136949 39.337316 2.5 112.19999694824 1.1200000047684 0.7855224609375 19 1 delete
10:46:07 57.136861 39.337503 8 109.09999847412 0.83999997377396 292.1484375 19 1 delete
10:35:57 57.131927 39.335648 1.5 104.40000152588 1.289999961853 14.804077148438 19 1 delete
10:35:52 57.131873 39.335636 2 105.40000152588 1.1999999284744 13.353881835938 19 1 delete
10:35:42 57.131763 39.335554 2.5 105.09999847412 1.3099999427795 30.926513671875 19 1 delete
10:35:31 57.131665 39.335372 8.5 103.30000305176 1.2300000190735 50.86669921875 20 1 delete
10:25:22 57.125389 39.333295 2 104.69999694824 1.4099999666214 85.105590820312 20 1 delete
10:25:12 57.125321 39.333115 2 105 1.3399999141693 43.192749023438 20 1 delete
10:25:01 57.125174 39.333013 8 102.80000305176 1.3799999952316 13.348388671875 20 1 delete
10:14:51 57.119240 39.328433 2 108.40000152588 1.3899999856949 1.6973876953125 21 1 delete
10:14:41 57.119108 39.328406 2 108.40000152588 1.4199999570847 9.7943115234375 21 1 delete
10:14:25 57.118962 39.328350 8 105.40000152588 1.0499999523163 357.4951171875 21 1 delete
10:04:16 57.113351 39.320907 2 119 1.0799999237061 348.65661621094 21 1 delete
10:04:06 57.113222 39.320887 2.5 118.80000305176 1.5299999713898 20.313720703125 21 1 delete
10:03:55 57.113161 39.320706 9.5 123.5 1.0599999427795 52.212524414062 21 1 delete
09:53:46 57.111711 39.325864 2 129.69999694824 0.28000000119209 319.07592773438 21 1 delete
09:53:36 57.111650 39.326050 2.5 128 0.97999995946884 307.94677734375 21 1 delete
09:53:25 57.111595 39.326185 8 111.19999694824 0.70999997854233 249.63134765625 21 1 delete
09:43:16 57.109012 39.336700 2 111.69999694824 0.77999997138977 233.81103515625 21 1 delete
09:43:06 57.109061 39.336759 2.5 109.5 0.5799999833107 193.78234863281 21 1 delete
09:43:01 57.109159 39.336678 3.5 108.69999694824 0 0 21 1 delete
09:42:55 57.109158 39.336880 9.5 119 1.1699999570847 177.72583007812 21 1 delete
09:32:46 57.110260 39.345277 2 103 1.1899999380112 244.59411621094 21 1 delete
09:32:36 57.110332 39.345497 2.5 105.69999694824 1.25 223.85192871094 21 1 delete
09:32:25 57.110434 39.345621 9.5 105.80000305176 1.4900000095367 208.65783691406 21 1 delete
09:22:16 57.111955 39.351855 2 112.80000305176 0.97999995946884 308.85314941406 21 1 delete
09:22:06 57.111887 39.352065 2.5 113.80000305176 1.3600000143051 307.68310546875 21 1 delete
09:21:55 57.111809 39.352281 8 107.80000305176 0.89999997615814 302.11303710938 21 1 delete
09:11:46 57.108853 39.363146 2 107.59999847412 0.79999995231628 313.78601074219 22 1 delete
09:11:36 57.108778 39.363311 2.5 106.59999847412 1.2999999523163 302.85461425781 22 1 delete
09:11:25 57.108711 39.363474 9 98 0.89999997615814 297.01538085938 22 1 delete
09:01:15 57.105032 39.371869 2.5 108.5 1.1200000047684 305.68359375 22 1 delete